Terminal Aerodrome Forecast
Issued by NWS

Home | Current Version | Previous Version | Text Only | Print | Product List | Glossary On
Versions: 1 2 3 4 5 6 7 8 9 10 11 12 13 14 15 16 17 18 19 20 21 22 23 24 25 26 27 28 29 30 31 32 33 34 35 36 37 38 39 40
000
FTAK31 PANC 140217 AAA
TAFADL
TAF AMD
PADL 140217Z 1402/1424 35011KT P6SM VCSH SCT015 BKN050
      TEMPO 1402/1406 6SM -SHSN BKN015
     FM140900 34010KT P6SM VCSH SCT015 BKN030
     FM141600 03008KT P6SM -SHRASN BKN015 OVC030=

USA.gov is the U.S. government's official web portal to all federal, state and local government web resources and services.